BADALONA



more information


Meteosat more information blitzortung!


Radar lluvias  rain snow radar


Visita nuestra red de sitios de meteo:

Template documentation
and downloads

And another site



No requiere especial atención con respecto al clima.    No hay Alarmas

Informes METAR proximidad

   
LEBL - Barcelona Airpor, Spain
Distancia hasta la estación: SSE 30 km
Actualización: 20-06-2018 18:30
Despejado  
Despejado  
   Viento: SE 7.4 km/h
Viento: SE 7.4 km/h
Temperatura: 26°C
Punto de rocío: 17°C
Humedad: 58%
Baromètro: 1018 hPa
Visibilidad: More than 10 km
detalles de la nube: Despejado m
LEBL 201630Z 14004KT 100V200 CAVOK 26/17 Q1018 NOSIG
LELL - Sabadell, Spain
Distancia hasta la estación: WNW 14 km
Actualización: 20-06-2018 18:30
Despejado  
Despejado  
   Viento: SE 11.1 km/h
Viento: SE 11.1 km/h
Temperatura: 30°C
Punto de rocío: 13°C
Humedad: 35%
Baromètro: 1018 hPa
Visibilidad: More than 10 km
detalles de la nube: Despejado m
LELL 201630Z 13006KT 070V200 CAVOK 30/13 Q1018
LEGE - Girona/Costa Bra, Spain
Distancia hasta la estación: NE 65 km
Actualización: 20-06-2018 18:30
Despejado  
Despejado  
   Viento: SSW 16.7 km/h
Viento: SSW 16.7 km/h
Temperatura: 30°C
Punto de rocío: 11°C
Humedad: 31%
Baromètro: 1018 hPa
Visibilidad: More than 10 km
detalles de la nube: Despejado m
LEGE 201630Z 20009KT 170V230 CAVOK 30/11 Q1018
LERS - Reus (civ/Mil), Spain
Distancia hasta la estación: WSW 96 km
Actualización: 20-06-2018 18:30
Nubes dispersas  
Nubes dispersas  
   Viento: S 7.4 km/h
Viento: S 7.4 km/h
Temperatura: 29°C
Índice de calor: 29°C
Punto de rocío: 15°C
Humedad: 43%
Baromètro: 1018 hPa
Nublado: Few Clouds
Visibilidad: More than 10 km
detalles de la nube: Nubes dispersas 1219.2 m
LERS 201630Z 19004KT 140V260 9999 FEW040 29/15 Q1018
LESU - Pirineus/La Seu, Spain
Distancia hasta la estación: NW 121 km
Actualización: 18-06-2018 19:00
NO actual
Nubes dispersas  
Nubes dispersas  
   Viento: NNW 11.1 km/h
Viento: NNW 11.1 km/h
Temperatura: 28°C
Punto de rocío: 5°C
Humedad: 23%
Baromètro: 1021 hPa
Nublado: Few Clouds
Visibilidad: More than 10 km
detalles de la nube: Nubes dispersas 2438.4 m
LESU 181700Z 34006KT 280V040 9999 FEW080 28/05 Q1021
LEDA - Lleida/Alguaire, Spain
Distancia hasta la estación: WNW 146 km
Actualización: 17-06-2018 18:00
NO actual
Despejado  
Despejado  
   Viento: SW 20.4 km/h
Viento: SW 20.4 km/h
Temperatura: 28°C
Punto de rocío: 10°C
Humedad: 32%
Baromètro: 1019 hPa
Visibilidad: More than 10 km
detalles de la nube: Despejado m
LEDA 171600Z 23011KT 190V270 CAVOK 28/10 Q1019
LFMP - Perpignan/Rivesa, France
Distancia hasta la estación: NNE 150 km
Actualización: 20-06-2018 18:30
Despejado  
Despejado  
   Viento: E 14.8 km/h
Viento: E 14.8 km/h
Temperatura: 28°C
Índice de calor: 28°C
Punto de rocío: 16°C
Humedad: 48%
Baromètro: 1017 hPa
Visibilidad: More than 10 km
detalles de la nube: Despejado m
LFMP 201630Z AUTO 08008KT CAVOK 28/16 Q1017 NOSIG
LEPA - Palma De Mallorca, Spain
Distancia hasta la estación: S 216 km
Actualización: 20-06-2018 18:30
Nubes dispersas  
Nubes dispersas  
   Viento: SW 18.5 km/h
Viento: SW 18.5 km/h
Temperatura: 27°C
Índice de calor: 27°C
Punto de rocío: 16°C
Humedad: 51%
Baromètro: 1018 hPa
Nublado: Few Clouds
Visibilidad: More than 10 km
detalles de la nube: Nubes dispersas 609.6 m
LEPA 201630Z 22010KT 9999 FEW020 27/16 Q1018 NOSIG
 

Guión original por  Saratoga-weather.org Adaptado para la plantilla por  Weerstation Leuven

Usted encontrará nuestra información del tiempo también en:

UK Metoffice

European Weather Network

WeatherCloud

Weather Underground

Iberian Peninsula Weather Network

AWEKAS

Citizen Weather Observer Program (CWOP)

HAMweather, WeatherForYou, PWS Weather

Equipo utilizado:

Weather-station
Davis Vantage Vue

Weather-program
Weather Display

Weather-server
My Computer

Proveedor
My provider

Davis Vantage Vue

Weather Display

My Computer

My provider